Time;durP1;ratioP1;P1;durP2;ratioP2;P2;SDS_P1;SDS_P2;PMS_P1;PMS_P2;Temp;Humidity;BMP_temperature;BMP_pressure;BME280_temperature;BME280_humidity;BME280_pressure;Samples;Min_cycle;Max_cycle;Signal;HPM_P1;HPM_P2
2022/04/30 00:02:07;;;;;;;17.65;11.27;;;;;;;10.84;60.49;96678.78;5089222;28;20051;-72
2022/04/30 00:04:35;;;;;;;14.85;11.05;;;;;;;10.85;59.98;96674.94;5088629;28;20675;-73
2022/04/30 00:07:01;;;;;;;15.65;11.20;;;;;;;10.83;59.73;96667.09;5088929;28;20513;-74
2022/04/30 00:09:28;;;;;;;16.38;11.30;;;;;;;10.82;59.69;96670.13;5088345;28;20044;-73
2022/04/30 00:11:54;;;;;;;16.55;11.75;;;;;;;10.78;59.61;96669.94;5089316;28;20072;-73
2022/04/30 00:14:22;;;;;;;16.58;11.60;;;;;;;10.79;60.03;96676.19;5087783;28;24941;-74
2022/04/30 00:16:49;;;;;;;15.85;11.27;;;;;;;10.78;60.29;96674.59;5089051;28;20055;-73
2022/04/30 00:19:16;;;;;;;15.45;11.25;;;;;;;10.77;60.19;96672.97;5088599;28;20040;-73
2022/04/30 00:21:42;;;;;;;13.98;10.95;;;;;;;10.77;60.06;96667.53;5088854;28;20444;-73
2022/04/30 00:24:09;;;;;;;15.43;11.02;;;;;;;10.77;60.42;96668.34;5088801;28;20048;-73
2022/04/30 00:26:35;;;;;;;13.98;10.88;;;;;;;10.76;60.38;96661.28;5088647;28;20048;-74
2022/04/30 00:29:02;;;;;;;16.15;11.05;;;;;;;10.73;60.69;96667.34;5089188;28;20071;-74
2022/04/30 00:31:30;;;;;;;15.65;11.38;;;;;;;10.70;60.97;96663.34;5088707;28;20048;-73
2022/04/30 00:33:56;;;;;;;17.48;12.13;;;;;;;10.69;60.98;96669.88;5092621;28;20047;-73
2022/04/30 00:36:23;;;;;;;15.82;12.75;;;;;;;10.70;60.73;96671.50;5092135;28;20044;-73
2022/04/30 00:38:49;;;;;;;19.83;11.82;;;;;;;10.68;60.94;96665.53;5092914;28;20045;-74
2022/04/30 00:41:16;;;;;;;17.13;12.32;;;;;;;10.67;60.82;96663.94;5092095;28;20048;-73
2022/04/30 00:43:44;;;;;;;17.23;12.13;;;;;;;10.62;60.65;96666.00;5092472;28;20048;-73
2022/04/30 00:46:13;;;;;;;17.45;12.70;;;;;;;10.57;60.68;96661.47;5092192;28;20076;-73
2022/04/30 00:48:41;;;;;;;17.20;13.27;;;;;;;10.54;60.76;96653.91;5092337;28;20071;-73
2022/04/30 00:51:10;;;;;;;20.63;13.13;;;;;;;10.51;61.50;96656.47;5092479;28;20047;-73
2022/04/30 00:53:37;;;;;;;20.13;12.90;;;;;;;10.47;61.87;96653.56;5092060;28;20052;-73
2022/04/30 00:56:06;;;;;;;16.60;12.00;;;;;;;10.45;61.94;96651.16;5092538;28;20044;-73
2022/04/30 00:58:35;;;;;;;18.90;12.23;;;;;;;10.46;61.99;96657.41;5091968;28;20041;-73
2022/04/30 01:01:02;;;;;;;17.45;12.98;;;;;;;10.44;61.78;96648.75;5092173;28;20036;-73
2022/04/30 01:03:29;;;;;;;17.25;12.95;;;;;;;10.40;62.25;96653.19;5092085;28;20040;-73
2022/04/30 01:05:58;;;;;;;19.55;12.75;;;;;;;10.40;62.42;96653.19;5092142;28;20040;-73
2022/04/30 01:08:27;;;;;;;22.90;13.38;;;;;;;10.37;62.81;96654.59;5091825;28;20048;-73
2022/04/30 01:10:54;;;;;;;19.38;12.75;;;;;;;10.37;62.72;96653.78;5091859;28;20044;-73
2022/04/30 01:13:21;;;;;;;16.80;12.18;;;;;;;10.36;62.75;96646.75;5091977;28;20086;-73
2022/04/30 01:15:50;;;;;;;14.65;11.57;;;;;;;10.37;62.58;96651.06;5091361;28;20490;-73
2022/04/30 01:18:17;;;;;;;21.52;12.90;;;;;;;10.32;62.29;96645.75;5092082;28;20056;-73
2022/04/30 01:20:47;;;;;;;16.02;12.13;;;;;;;10.32;62.22;96648.47;5091401;28;20557;-73
2022/04/30 01:23:16;;;;;;;15.80;12.38;;;;;;;10.31;62.19;96649.59;5091727;28;20093;-73
2022/04/30 01:25:44;;;;;;;18.42;12.93;;;;;;;10.29;63.07;96651.84;5091773;28;20048;-72
2022/04/30 01:28:12;;;;;;;17.85;11.73;;;;;;;10.27;63.43;96651.31;5091496;28;20090;-73
2022/04/30 01:30:38;;;;;;;24.42;12.85;;;;;;;10.25;63.54;96646.19;5091852;28;20146;-72
2022/04/30 01:38:35;;;;;;;17.60;11.98;;;;;;;10.17;64.83;96634.06;5091039;28;20062;-74
2022/04/30 01:41:02;;;;;;;18.63;12.80;;;;;;;10.16;64.96;96637.13;5091283;28;20048;-73
2022/04/30 01:43:29;;;;;;;18.15;12.73;;;;;;;10.13;65.63;96635.03;5091071;28;20127;-73
2022/04/30 01:45:56;;;;;;;15.48;11.60;;;;;;;10.15;65.28;96636.31;5091211;28;20036;-73
2022/04/30 01:48:23;;;;;;;16.05;11.43;;;;;;;10.15;64.45;96633.59;5091077;28;20044;-73
2022/04/30 01:50:49;;;;;;;16.60;11.63;;;;;;;10.14;63.39;96632.00;5090870;28;20044;-73
2022/04/30 01:53:16;;;;;;;14.88;12.13;;;;;;;10.12;63.52;96626.03;5091150;28;20056;-73
2022/04/30 01:55:44;;;;;;;14.95;11.35;;;;;;;10.11;63.75;96624.44;5090522;28;20774;-73
2022/04/30 01:58:11;;;;;;;17.85;13.25;;;;;;;10.08;63.79;96630.50;5091297;28;20043;-73
2022/04/30 02:00:37;;;;;;;17.73;11.98;;;;;;;10.04;64.19;96629.50;5090632;28;20040;-73
2022/04/30 02:03:06;;;;;;;17.45;12.73;;;;;;;10.00;64.32;96628.50;5090818;28;20507;-73
2022/04/30 02:05:34;;;;;;;15.80;12.43;;;;;;;9.96;64.26;96623.97;5090621;28;20513;-73
2022/04/30 02:08:04;;;;;;;15.95;11.77;;;;;;;9.93;64.59;96628.13;5090610;28;20054;-73
2022/04/30 02:10:32;;;;;;;16.58;11.48;;;;;;;9.90;64.57;96623.28;5090961;28;20049;-73
2022/04/30 02:13:00;;;;;;;16.85;11.85;;;;;;;9.86;65.38;96623.09;5090044;28;20052;-73
2022/04/30 02:15:28;;;;;;;18.65;12.25;;;;;;;9.84;65.72;96627.25;5090589;28;20091;-73
2022/04/30 02:17:57;;;;;;;20.27;11.93;;;;;;;9.82;65.69;96615.88;5090148;28;20040;-73
2022/04/30 02:20:26;;;;;;;18.90;13.55;;;;;;;9.82;65.28;96618.59;5090906;28;20054;-73
2022/04/30 02:22:54;;;;;;;16.08;12.40;;;;;;;9.81;65.67;96608.81;5089991;28;20043;-77
2022/04/30 02:25:21;;;;;;;19.65;11.45;;;;;;;9.81;65.17;96603.38;5090106;28;20101;-73
2022/04/30 02:27:50;;;;;;;15.10;11.25;;;;;;;9.82;64.80;96605.00;5090221;28;20109;-73
2022/04/30 02:30:21;;;;;;;16.33;11.18;;;;;;;9.83;65.01;96598.44;5089800;28;20463;-73
2022/04/30 02:32:49;;;;;;;18.30;11.63;;;;;;;9.82;64.59;96599.56;5090249;28;20498;-73
2022/04/30 02:35:17;;;;;;;17.77;11.45;;;;;;;9.79;64.36;96592.81;5089228;28;20051;-72
2022/04/30 02:37:45;;;;;;;14.48;11.27;;;;;;;9.77;63.78;96596.97;5090794;28;20040;-72
2022/04/30 02:40:13;;;;;;;19.20;12.18;;;;;;;9.77;63.48;96596.97;5089459;28;20093;-72
2022/04/30 02:42:41;;;;;;;16.30;11.35;;;;;;;9.77;64.29;96597.75;5090929;28;20072;-72
2022/04/30 02:45:09;;;;;;;16.58;12.32;;;;;;;9.75;64.55;96599.97;5089454;28;20044;-72
2022/04/30 02:47:37;;;;;;;16.98;11.98;;;;;;;9.71;64.89;96595.44;5090633;28;20044;-73
2022/04/30 02:50:05;;;;;;;15.85;11.15;;;;;;;9.70;64.66;96594.63;5089361;28;20113;-74
2022/04/30 02:52:31;;;;;;;16.25;11.02;;;;;;;9.68;64.47;96589.50;5090215;28;20044;-72
2022/04/30 02:54:58;;;;;;;17.40;12.05;;;;;;;9.70;64.68;96577.50;5089469;28;20502;-72
2022/04/30 02:57:24;;;;;;;16.92;11.68;;;;;;;9.71;64.84;96582.66;5089218;28;20383;-73
2022/04/30 02:59:57;;;;;;;16.58;11.68;;;;;;;9.70;64.77;96570.16;5090408;28;20044;-72
2022/04/30 03:02:23;;;;;;;15.63;12.32;;;;;;;9.66;64.70;96563.75;5088936;28;20098;-73
2022/04/30 03:04:53;;;;;;;15.63;11.63;;;;;;;9.65;64.35;96568.34;5090511;28;20401;-73
2022/04/30 03:07:22;;;;;;;16.33;11.70;;;;;;;9.64;64.33;96569.47;5088920;28;20044;-73
2022/04/30 03:09:49;;;;;;;19.67;12.75;;;;;;;9.63;64.37;96570.59;5090158;28;20040;-72
2022/04/30 03:12:17;;;;;;;16.95;11.65;;;;;;;9.65;64.87;96568.34;5088913;28;20648;-73
2022/04/30 03:14:45;;;;;;;14.65;11.38;;;;;;;9.63;65.32;96565.16;5089825;28;20044;-73
2022/04/30 03:22:42;;;;;;;17.60;12.45;;;;;;;9.60;65.51;96554.06;5084024;28;20050;-74
2022/04/30 03:25:09;;;;;;;15.68;12.32;;;;;;;9.59;65.46;96547.84;5088558;28;20040;-75
2022/04/30 03:27:36;;;;;;;15.80;12.07;;;;;;;9.59;65.72;96553.28;5090039;28;20142;-74
2022/04/30 03:30:03;;;;;;;15.23;11.57;;;;;;;9.57;66.03;96550.06;5088893;28;20074;-75
2022/04/30 03:32:30;;;;;;;17.92;12.20;;;;;;;9.56;66.21;96551.19;5089703;28;20044;-74
2022/04/30 03:34:58;;;;;;;20.77;12.57;;;;;;;9.54;66.25;96550.66;5089425;28;20463;-75
2022/04/30 03:37:25;;;;;;;22.75;14.15;;;;;;;9.51;66.24;96551.31;5088843;28;20091;-74
2022/04/30 03:39:51;;;;;;;21.38;13.02;;;;;;;9.49;66.95;96548.06;5089771;28;20068;-75
2022/04/30 03:42:18;;;;;;;19.45;13.70;;;;;;;9.46;66.85;96537.81;5086953;28;20052;-72
2022/04/30 03:44:44;;;;;;;20.08;13.65;;;;;;;9.44;67.10;96540.03;5089994;28;20494;-73
2022/04/30 03:47:11;;;;;;;21.00;13.38;;;;;;;9.43;67.77;96532.19;5088267;28;20044;-72
2022/04/30 03:49:37;;;;;;;19.15;13.10;;;;;;;9.41;67.24;96530.59;5089827;28;20059;-74
2022/04/30 03:52:08;;;;;;;22.30;13.43;;;;;;;9.34;66.86;96538.34;5088443;28;20047;-75
2022/04/30 03:54:35;;;;;;;19.98;13.32;;;;;;;9.29;67.25;96537.63;5089943;28;20070;-74
2022/04/30 03:57:01;;;;;;;20.13;13.70;;;;;;;9.28;66.97;96533.31;5088912;28;20048;-73
2022/04/30 03:59:28;;;;;;;17.92;13.38;;;;;;;9.28;67.28;96536.03;5089738;28;20048;-73
2022/04/30 04:01:54;;;;;;;17.33;13.00;;;;;;;9.26;67.20;96530.13;5089850;28;20044;-73
2022/04/30 04:04:21;;;;;;;17.55;13.20;;;;;;;9.27;67.29;96535.22;5088454;28;20051;-73
2022/04/30 04:06:47;;;;;;;18.40;13.90;;;;;;;9.28;67.21;96536.03;5091123;28;20055;-72
2022/04/30 04:09:15;;;;;;;19.35;14.30;;;;;;;9.28;67.07;96541.47;5092315;28;20048;-72
2022/04/30 04:11:42;;;;;;;18.42;14.25;;;;;;;9.29;67.15;96537.63;5093715;28;20062;-73
2022/04/30 04:19:36;;;;;;;16.17;13.32;;;;;;;9.39;68.35;96542.84;5086248;28;20059;-72
2022/04/30 04:22:04;;;;;;;19.73;12.55;;;;;;;9.44;68.10;96541.94;5092386;28;20433;-72
2022/04/30 04:27:17;;;;;;;18.10;13.73;;;;;;;9.51;66.29;96550.50;5091927;28;20137;-73
2022/04/30 04:29:43;;;;;;;17.05;11.82;;;;;;;9.52;65.98;96547.47;5093186;28;20044;-75
2022/04/30 04:32:10;;;;;;;16.92;12.57;;;;;;;9.48;66.12;96554.63;5092071;28;20036;-72
2022/04/30 04:34:36;;;;;;;19.92;13.60;;;;;;;9.39;65.72;96557.25;5093018;28;20044;-73
2022/04/30 04:37:03;;;;;;;18.35;13.45;;;;;;;9.34;66.00;96556.56;5092212;28;20047;-73
2022/04/30 04:39:31;;;;;;;18.88;14.18;;;;;;;9.33;66.69;96563.09;5092129;28;20040;-73
2022/04/30 04:41:58;;;;;;;21.95;13.30;;;;;;;9.35;67.49;96552.75;5092136;28;20044;-73
2022/04/30 04:44:24;;;;;;;21.50;14.05;;;;;;;9.39;67.63;96559.97;5071323;28;20051;-72
2022/04/30 04:46:51;;;;;;;19.60;13.43;;;;;;;9.43;67.25;96568.31;5072661;28;20521;-73
2022/04/30 04:49:17;;;;;;;19.35;14.18;;;;;;;9.45;67.21;96563.41;5071461;28;20131;-72
2022/04/30 04:51:44;;;;;;;19.02;13.02;;;;;;;9.47;66.97;96560.38;5072705;28;20052;-73
2022/04/30 04:54:10;;;;;;;15.68;12.13;;;;;;;9.50;67.31;96567.91;5071218;28;20425;-73
2022/04/30 04:56:39;;;;;;;19.92;13.23;;;;;;;9.50;66.48;96570.63;5072745;28;20041;-73
2022/04/30 04:59:06;;;;;;;22.02;14.85;;;;;;;9.45;66.69;96574.28;5072015;28;20448;-73
2022/04/30 05:01:33;;;;;;;21.08;13.77;;;;;;;9.44;66.64;96578.06;5071813;28;20039;-72
2022/04/30 05:04:00;;;;;;;21.27;14.07;;;;;;;9.47;66.98;96579.41;5072236;28;20118;-73
2022/04/30 05:06:26;;;;;;;18.85;13.35;;;;;;;9.50;67.08;96579.59;5071499;28;20047;-73
2022/04/30 05:08:53;;;;;;;22.77;14.45;;;;;;;9.54;67.13;96579.78;5072392;28;20047;-73
2022/04/30 05:11:20;;;;;;;22.77;14.40;;;;;;;9.58;67.03;96584.28;5070602;28;20131;-72
2022/04/30 05:13:47;;;;;;;21.23;14.68;;;;;;;9.64;66.55;96588.50;5087714;28;20051;-73
2022/04/30 05:16:14;;;;;;;23.15;15.85;;;;;;;9.69;66.81;96579.44;5091280;28;20044;-73
2022/04/30 05:18:40;;;;;;;20.58;14.40;;;;;;;9.75;67.87;96582.84;5091509;28;20509;-72
2022/04/30 05:21:08;;;;;;;18.77;14.25;;;;;;;9.80;68.56;96577.28;5091430;28;20043;-73
2022/04/30 05:23:34;;;;;;;19.10;14.30;;;;;;;9.82;68.96;96588.69;5091876;28;20071;-73
2022/04/30 05:26:00;;;;;;;19.00;14.30;;;;;;;9.77;68.90;96591.50;5091923;28;20043;-73
2022/04/30 05:28:27;;;;;;;19.50;15.07;;;;;;;9.72;69.04;96594.34;5091199;28;20490;-73
2022/04/30 05:30:55;;;;;;;22.55;14.90;;;;;;;9.49;67.86;96597.00;5091966;28;20502;-73
2022/04/30 05:33:22;;;;;;;23.00;14.98;;;;;;;9.59;68.51;96596.78;5090838;28;20056;-73
2022/04/30 05:35:48;;;;;;;23.02;17.40;;;;;;;9.65;69.79;96605.63;5092342;28;20036;-73
2022/04/30 05:38:15;;;;;;;26.80;19.15;;;;;;;9.74;70.07;96597.56;5090726;28;20048;-73
2022/04/30 05:40:41;;;;;;;22.45;17.00;;;;;;;9.88;69.90;96604.56;5092104;28;20040;-73
2022/04/30 05:43:08;;;;;;;20.23;16.15;;;;;;;10.00;68.79;96595.06;5090347;28;20051;-73
2022/04/30 05:45:35;;;;;;;23.20;15.32;;;;;;;10.09;68.52;96594.00;5091765;28;20375;-74
2022/04/30 05:48:03;;;;;;;20.58;15.77;;;;;;;10.16;67.92;96588.94;5090713;28;20491;-73
2022/04/30 05:50:29;;;;;;;23.60;16.98;;;;;;;10.25;67.99;96597.19;5091191;28;20055;-73
2022/04/30 05:52:56;;;;;;;22.67;16.13;;;;;;;10.37;68.16;96596.63;5091443;28;20044;-73
2022/04/30 05:55:23;;;;;;;18.27;15.25;;;;;;;10.47;67.48;96599.09;5090245;28;20499;-73
2022/04/30 05:57:49;;;;;;;20.38;15.43;;;;;;;10.57;66.95;96582.50;5091527;28;20060;-73
2022/04/30 06:00:17;;;;;;;20.48;15.40;;;;;;;10.63;66.12;96586.69;5090301;28;20044;-73
2022/04/30 06:02:43;;;;;;;20.38;15.60;;;;;;;10.75;65.44;96577.13;5091779;28;20040;-75
2022/04/30 06:05:12;;;;;;;22.50;15.07;;;;;;;10.81;64.54;96575.91;5090109;28;20122;-74
2022/04/30 06:07:38;;;;;;;24.27;15.25;;;;;;;10.87;64.33;96571.91;5091239;28;20040;-75
2022/04/30 06:10:06;;;;;;;21.88;14.55;;;;;;;10.98;64.40;96575.97;5090536;28;20062;-75
2022/04/30 06:12:33;;;;;;;21.65;16.15;;;;;;;11.07;63.32;96582.25;5090091;28;20521;-73
2022/04/30 06:15:00;;;;;;;16.73;13.15;;;;;;;11.09;61.80;96577.28;5090998;28;20040;-73
2022/04/30 06:17:26;;;;;;;17.02;13.43;;;;;;;11.12;60.70;96593.03;5090182;28;20047;-73
2022/04/30 06:19:53;;;;;;;18.02;13.07;;;;;;;11.20;61.27;96603.13;5091228;28;20040;-75
2022/04/30 06:22:20;;;;;;;17.80;12.77;;;;;;;11.27;59.44;96599.13;5089615;28;20047;-75
2022/04/30 06:24:47;;;;;;;16.58;12.43;;;;;;;11.30;58.85;96598.50;5091425;28;20044;-75
2022/04/30 06:27:14;;;;;;;18.58;12.15;;;;;;;11.33;58.60;96601.41;5090776;28;20047;-74
2022/04/30 06:29:40;;;;;;;19.27;13.35;;;;;;;11.40;58.61;96598.22;5090446;28;20109;-75
2022/04/30 06:32:07;;;;;;;16.55;11.50;;;;;;;11.39;57.68;96612.97;5089424;28;20047;-75
2022/04/30 06:34:34;;;;;;;16.65;11.27;;;;;;;11.43;57.54;96620.22;5090916;28;20066;-74
2022/04/30 06:37:01;;;;;;;18.33;13.43;;;;;;;11.41;57.69;96621.63;5090268;28;20036;-75
2022/04/30 06:39:28;;;;;;;23.52;16.13;;;;;;;11.18;61.67;96623.66;5090164;28;20036;-75
2022/04/30 06:41:55;;;;;;;21.77;16.98;;;;;;;10.98;63.54;96625.00;5090561;28;20044;-75
2022/04/30 06:44:21;;;;;;;21.45;16.40;;;;;;;11.06;62.21;96617.97;5089258;28;20419;-75
2022/04/30 06:46:48;;;;;;;20.85;15.45;;;;;;;11.07;61.77;96617.69;5090798;28;20047;-75
2022/04/30 06:49:14;;;;;;;23.20;16.00;;;;;;;10.99;60.29;96621.16;5089204;28;20051;-73
2022/04/30 06:51:41;;;;;;;20.55;15.77;;;;;;;10.96;62.87;96622.59;5091046;28;20055;-73
2022/04/30 06:57:11;;;;;;;21.25;16.92;;;;;;;11.05;65.02;96619.09;5090561;28;20509;-75
2022/04/30 06:59:40;;;;;;;22.17;15.77;;;;;;;11.10;64.66;96618.97;5090210;28;20127;-74
2022/04/30 07:02:07;;;;;;;20.80;16.10;;;;;;;11.21;64.51;96620.28;5089254;28;20064;-74
2022/04/30 07:04:34;;;;;;;22.58;15.70;;;;;;;11.31;64.57;96624.66;5090224;28;20048;-74
2022/04/30 07:07:01;;;;;;;19.33;15.75;;;;;;;11.30;64.41;96626.56;5089085;28;20047;-74
2022/04/30 07:09:32;;;;;;;21.27;15.70;;;;;;;11.37;63.26;96618.72;5089997;28;20039;-75
2022/04/30 07:12:00;;;;;;;24.27;16.20;;;;;;;11.50;63.89;96611.56;5088865;28;20109;-74
2022/04/30 07:14:27;;;;;;;20.77;16.00;;;;;;;11.60;63.24;96607.75;5090032;28;20068;-74
2022/04/30 07:16:53;;;;;;;19.23;14.73;;;;;;;11.75;62.67;96610.81;5089705;28;20043;-75
2022/04/30 07:19:20;;;;;;;22.63;15.50;;;;;;;11.91;61.93;96607.66;5089049;28;20059;-75
2022/04/30 07:21:46;;;;;;;19.98;15.00;;;;;;;12.04;60.78;96612.13;5089815;28;20444;-75
2022/04/30 07:24:13;;;;;;;22.73;15.20;;;;;;;12.18;59.62;96612.78;5088989;28;20040;-76
2022/04/30 07:26:39;;;;;;;17.83;14.10;;;;;;;12.23;58.08;96615.34;5090334;28;20040;-76
2022/04/30 07:29:07;;;;;;;23.35;14.70;;;;;;;12.36;55.57;96618.22;5088396;28;20050;-76
2022/04/30 07:31:33;;;;;;;20.92;14.32;;;;;;;12.49;56.18;96611.78;5089629;28;20574;-77
2022/04/30 07:34:00;;;;;;;19.63;14.48;;;;;;;12.62;56.88;96602.59;5088922;28;20047;-75
2022/04/30 07:36:26;;;;;;;18.65;14.02;;;;;;;12.79;56.02;96605.31;5089682;28;20501;-76
2022/04/30 07:38:53;;;;;;;19.55;14.35;;;;;;;13.01;58.01;96598.00;5089231;28;20040;-76
2022/04/30 07:41:20;;;;;;;18.92;13.90;;;;;;;13.38;55.31;96592.88;5090043;28;20055;-75
2022/04/30 07:43:46;;;;;;;18.17;13.25;;;;;;;14.48;53.22;96596.28;5092975;28;20449;-75
2022/04/30 07:46:14;;;;;;;18.63;12.80;;;;;;;15.98;47.88;96593.00;5093052;28;20040;-76
2022/04/30 07:48:40;;;;;;;13.80;11.48;;;;;;;17.17;43.12;96595.88;5093768;28;20043;-76
2022/04/30 07:51:13;;;;;;;16.45;11.80;;;;;;;18.37;41.57;96596.28;5092674;28;20044;-75
2022/04/30 07:53:40;;;;;;;;;;;;;;;19.28;38.05;96601.22;5094407;28;20426;-75
2022/04/30 07:56:06;;;;;;;19.98;11.27;;;;;;;19.34;39.10;96605.25;5092399;28;20423;-74
2022/04/30 07:58:33;;;;;;;17.20;11.25;;;;;;;19.04;38.62;96608.66;5093816;28;20044;-74
2022/04/30 08:01:00;;;;;;;12.10;10.45;;;;;;;18.89;39.83;96611.53;5092839;28;20654;-74
2022/04/30 08:03:27;;;;;;;16.73;11.27;;;;;;;18.90;39.50;96602.91;5093130;28;20032;-74
2022/04/30 08:05:54;;;;;;;15.32;11.20;;;;;;;18.67;39.27;96604.78;5093162;28;20036;-75
2022/04/30 08:08:20;;;;;;;14.68;11.45;;;;;;;18.19;40.00;96601.44;5092392;28;20071;-75
2022/04/30 08:10:47;;;;;;;16.55;13.10;;;;;;;17.63;43.02;96602.53;5093243;28;20040;-76
2022/04/30 08:13:14;;;;;;;17.40;13.00;;;;;;;17.14;44.45;96602.91;5091787;28;20040;-76
2022/04/30 08:15:43;;;;;;;15.75;12.45;;;;;;;17.28;44.84;96596.16;5071374;28;20044;-73
2022/04/30 08:18:10;;;;;;;16.42;12.68;;;;;;;17.96;43.10;96593.09;5067118;28;20051;-75
2022/04/30 08:20:38;;;;;;;17.13;12.77;;;;;;;18.09;43.99;96602.00;5068509;28;20049;-74
2022/04/30 08:23:06;;;;;;;17.27;12.10;;;;;;;17.79;43.01;96598.97;5087455;28;20131;-75
2022/04/30 08:25:33;;;;;;;14.73;12.57;;;;;;;17.60;43.64;96596.94;5088706;28;20105;-75
2022/04/30 08:28:00;;;;;;;16.67;11.75;;;;;;;17.61;45.02;96598.53;5087907;28;20775;-76
2022/04/30 08:30:27;;;;;;;14.07;11.00;;;;;;;17.68;43.65;96601.44;5088235;28;20048;-74
2022/04/30 08:32:53;;;;;;;13.05;10.90;;;;;;;17.93;43.19;96600.09;5088171;28;20051;-76
2022/04/30 08:35:20;;;;;;;18.00;11.20;;;;;;;18.06;42.36;96609.03;5087554;28;20047;-75
2022/04/30 08:37:47;;;;;;;12.52;11.07;;;;;;;18.14;42.78;96610.78;5088470;28;20079;-75
2022/04/30 08:40:14;;;;;;;15.25;11.20;;;;;;;17.87;41.87;96611.75;5087050;28;20494;-75
2022/04/30 08:42:41;;;;;;;14.07;11.63;;;;;;;17.68;42.12;96606.97;5087482;28;20520;-75
2022/04/30 08:45:09;;;;;;;16.08;11.10;;;;;;;17.64;42.17;96609.63;5087055;28;20048;-75
2022/04/30 08:47:39;;;;;;;15.05;11.88;;;;;;;17.54;42.24;96614.88;5088571;28;20059;-75
2022/04/30 08:50:08;;;;;;;16.73;11.00;;;;;;;17.44;43.76;96610.72;5086916;28;20670;-76
2022/04/30 08:52:35;;;;;;;14.57;11.73;;;;;;;17.34;44.65;96623.06;5087410;28;20648;-75
2022/04/30 08:55:03;;;;;;;14.40;11.10;;;;;;;17.32;43.45;96619.84;5086988;28;20499;-76
2022/04/30 08:57:30;;;;;;;16.30;11.50;;;;;;;17.27;42.71;96617.38;5087685;28;20051;-76
2022/04/30 08:59:57;;;;;;;17.90;11.98;;;;;;;17.33;43.65;96615.97;5088125;28;20036;-76
2022/04/30 09:02:23;;;;;;;23.38;12.00;;;;;;;17.13;43.21;96614.28;5086874;28;20044;-75
2022/04/30 09:04:50;;;;;;;15.90;11.60;;;;;;;17.13;44.33;96611.53;5088298;28;20075;-75
2022/04/30 09:07:19;;;;;;;16.80;12.23;;;;;;;17.17;44.37;96615.16;5086307;28;20048;-76
2022/04/30 09:09:54;;;;;;;16.60;12.55;;;;;;;17.11;43.18;96613.81;5088009;28;20056;-75
2022/04/30 09:12:23;;;;;;;17.05;11.75;;;;;;;17.06;44.68;96612.13;5085978;28;20118;-75
2022/04/30 09:14:50;;;;;;;14.38;10.98;;;;;;;16.99;44.78;96611.94;5087464;28;20052;-76
2022/04/30 09:17:18;;;;;;;20.15;12.25;;;;;;;16.80;46.20;96607.09;5087162;28;20048;-74
2022/04/30 09:19:53;;;;;;;12.98;11.10;;;;;;;16.75;45.29;96612.06;5087290;28;20044;-76
2022/04/30 09:22:30;;;;;;;19.88;11.35;;;;;;;16.84;46.03;96607.22;5087537;28;20048;-74
2022/04/30 09:24:57;;;;;;;16.33;12.02;;;;;;;16.83;46.41;96609.16;5086741;28;20051;-74
2022/04/30 09:27:26;;;;;;;15.57;11.88;;;;;;;16.79;46.52;96608.25;5087426;28;20043;-74
2022/04/30 09:29:52;;;;;;;21.10;13.27;;;;;;;16.89;46.38;96610.50;5086111;28;20098;-74
2022/04/30 09:32:22;;;;;;;16.35;11.50;;;;;;;16.85;44.66;96617.84;5086771;28;20051;-74
2022/04/30 09:37:45;;;;;;;15.45;11.95;;;;;;;16.72;46.92;96610.84;5079810;28;20122;-73
2022/04/30 09:40:23;;;;;;;14.80;12.18;;;;;;;16.75;46.53;96606.56;5086609;28;20051;-73
2022/04/30 09:42:51;;;;;;;14.82;11.75;;;;;;;16.63;45.31;96607.41;5086036;28;20502;-74
2022/04/30 09:45:26;;;;;;;14.60;11.60;;;;;;;16.44;46.87;96606.13;5086828;28;20052;-74
2022/04/30 09:47:53;;;;;;;13.82;11.45;;;;;;;16.23;45.43;96610.19;5086688;28;20117;-75
2022/04/30 09:55:53;;;;;;;15.73;11.95;;;;;;;16.11;46.74;96602.78;5086501;28;20521;-74
2022/04/30 09:58:24;;;;;;;16.48;11.85;;;;;;;15.90;47.24;96603.75;5086725;28;20083;-73
2022/04/30 10:00:57;;;;;;;15.63;11.65;;;;;;;15.78;46.92;96602.97;5087233;28;20320;-73
2022/04/30 10:03:27;;;;;;;15.77;12.30;;;;;;;15.78;48.11;96601.03;5086593;28;20047;-73
2022/04/30 10:06:00;;;;;;;17.77;12.55;;;;;;;15.70;47.89;96601.94;5087348;28;20056;-74
2022/04/30 10:08:28;;;;;;;15.53;11.63;;;;;;;15.48;48.24;96605.13;5086402;28;20047;-74
2022/04/30 10:11:04;;;;;;;14.45;12.20;;;;;;;15.33;47.69;96601.91;5086758;28;20040;-75
2022/04/30 10:13:40;;;;;;;18.15;12.77;;;;;;;15.33;48.42;96599.19;5085424;28;20383;-74
2022/04/30 10:16:13;;;;;;;15.68;11.55;;;;;;;15.48;48.95;96602.38;5086987;28;20044;-74
2022/04/30 10:18:43;;;;;;;16.92;11.48;;;;;;;15.44;47.51;96601.47;5086279;28;20052;-74
2022/04/30 10:21:17;;;;;;;17.88;11.57;;;;;;;15.53;48.61;96596.66;5086287;28;20097;-74
2022/04/30 10:23:44;;;;;;;17.35;12.07;;;;;;;15.50;48.86;96600.09;5086259;28;20047;-73
2022/04/30 10:26:10;;;;;;;15.02;11.80;;;;;;;15.57;48.14;96603.06;5086314;28;20040;-75
2022/04/30 10:28:38;;;;;;;15.63;11.32;;;;;;;15.77;50.99;96601.38;5086214;28;20444;-75
2022/04/30 10:31:06;;;;;;;16.90;11.20;;;;;;;16.03;48.87;96601.78;5085506;28;20040;-73
2022/04/30 10:33:34;;;;;;;15.10;11.50;;;;;;;16.29;46.57;96608.81;5086195;28;20052;-74
2022/04/30 10:36:06;;;;;;;14.00;10.75;;;;;;;16.42;49.08;96602.91;5085845;28;20047;-73
2022/04/30 10:38:33;;;;;;;16.27;11.00;;;;;;;16.57;46.07;96598.59;5086085;28;20040;-74
2022/04/30 10:41:01;;;;;;;16.27;10.40;;;;;;;16.75;46.99;96607.38;5085800;28;20046;-73
2022/04/30 10:43:32;;;;;;;15.63;10.40;;;;;;;16.75;45.85;96606.56;5068870;28;20047;-74
2022/04/30 10:46:00;;;;;;;11.50;9.38;;;;;;;16.64;44.99;96601.53;5085588;28;20146;-78
2022/04/30 10:48:27;;;;;;;11.75;9.43;;;;;;;16.55;44.05;96606.41;5085360;28;20147;-75
2022/04/30 10:51:04;;;;;;;14.07;10.77;;;;;;;16.38;45.02;96603.94;5085467;28;20071;-74
2022/04/30 10:53:32;;;;;;;11.73;9.75;;;;;;;16.34;47.16;96603.88;5084849;28;20040;-73
2022/04/30 10:56:01;;;;;;;16.50;11.02;;;;;;;16.36;46.00;96601.56;5085937;28;20608;-74
2022/04/30 10:58:28;;;;;;;13.95;10.77;;;;;;;16.30;46.89;96602.97;5084162;28;20093;-74
2022/04/30 11:00:55;;;;;;;15.80;10.63;;;;;;;16.32;46.57;96597.91;5085729;28;20075;-74
2022/04/30 11:03:28;;;;;;;15.52;11.35;;;;;;;16.20;49.41;96602.66;5084192;28;20047;-73
2022/04/30 11:05:54;;;;;;;12.48;10.52;;;;;;;16.23;46.46;96604.69;5085551;28;20044;-74
2022/04/30 11:08:21;;;;;;;11.35;9.63;;;;;;;16.18;46.21;96602.97;5084471;28;20701;-73
2022/04/30 11:10:52;;;;;;;11.57;9.32;;;;;;;16.14;46.14;96607.59;5084870;28;20040;-74
2022/04/30 11:13:19;;;;;;;17.98;11.02;;;;;;;16.12;47.33;96598.88;5083618;28;20063;-74
2022/04/30 11:15:45;;;;;;;15.43;11.25;;;;;;;16.04;48.61;96594.34;5084042;28;20079;-74
2022/04/30 11:18:13;;;;;;;13.88;10.93;;;;;;;15.98;46.96;96590.25;5084655;28;20521;-74
2022/04/30 11:20:41;;;;;;;13.55;10.25;;;;;;;15.94;47.32;96594.81;5084159;28;20082;-74
2022/04/30 11:23:08;;;;;;;15.00;11.73;;;;;;;15.86;48.76;96593.78;5084709;28;20521;-74
2022/04/30 11:25:35;;;;;;;18.15;11.13;;;;;;;15.78;48.11;96594.72;5084625;28;20052;-75
2022/04/30 11:28:05;;;;;;;19.05;11.05;;;;;;;15.61;50.05;96590.28;5085158;28;20402;-74
2022/04/30 11:30:35;;;;;;;15.82;11.77;;;;;;;15.52;49.23;96597.81;5084965;28;20052;-74
2022/04/30 11:33:02;;;;;;;15.32;11.95;;;;;;;15.51;50.16;96586.03;5083775;28;20051;-73
2022/04/30 11:35:29;;;;;;;15.20;12.27;;;;;;;15.43;49.93;96588.91;5084872;28;20047;-74
2022/04/30 11:37:57;;;;;;;16.70;12.20;;;;;;;15.34;49.43;96581.56;5084606;28;20657;-75
2022/04/30 11:40:25;;;;;;;14.50;11.07;;;;;;;15.28;48.89;96580.19;5084746;28;20458;-75
2022/04/30 11:42:56;;;;;;;15.70;12.30;;;;;;;15.16;49.76;96585.69;5082180;28;20667;-74
2022/04/30 11:45:24;;;;;;;17.30;12.43;;;;;;;15.10;50.78;96595.28;5084988;28;20048;-75
2022/04/30 11:47:51;;;;;;;15.05;12.15;;;;;;;15.00;50.46;96596.53;5084222;28;20051;-74
2022/04/30 11:50:18;;;;;;;18.80;12.30;;;;;;;14.97;49.75;96594.44;5084562;28;20063;-74
2022/04/30 11:52:46;;;;;;;18.25;13.15;;;;;;;14.90;50.21;96590.69;5084063;28;20048;-74